sensor_id;sensor_type;location;lat;lon;timestamp;P1;durP1;ratioP1;P2;durP2;ratioP2
50495;SDS011;38806;51.554;5.704;2023-09-30T00:06:14;13.02;;;6.00;;
50495;SDS011;38806;51.554;5.704;2023-09-30T00:10:52;25.23;;;9.55;;
50495;SDS011;38806;51.554;5.704;2023-09-30T00:15:46;17.15;;;8.75;;
50495;SDS011;38806;51.554;5.704;2023-09-30T00:18:05;16.08;;;9.05;;
50495;SDS011;38806;51.554;5.704;2023-09-30T00:20:12;15.35;;;9.55;;
50495;SDS011;38806;51.554;5.704;2023-09-30T00:24:17;20.42;;;8.27;;
50495;SDS011;38806;51.554;5.704;2023-09-30T00:26:30;15.07;;;8.07;;
50495;SDS011;38806;51.554;5.704;2023-09-30T00:28:30;13.80;;;8.57;;
50495;SDS011;38806;51.554;5.704;2023-09-30T00:30:33;13.68;;;7.07;;
50495;SDS011;38806;51.554;5.704;2023-09-30T00:32:34;15.15;;;7.13;;
50495;SDS011;38806;51.554;5.704;2023-09-30T00:34:43;15.77;;;7.35;;
50495;SDS011;38806;51.554;5.704;2023-09-30T01:09:13;20.63;;;8.82;;
50495;SDS011;38806;51.554;5.704;2023-09-30T01:19:14;14.35;;;7.43;;
50495;SDS011;38806;51.554;5.704;2023-09-30T01:21:15;18.20;;;7.60;;
50495;SDS011;38806;51.554;5.704;2023-09-30T01:26:11;15.32;;;7.78;;
50495;SDS011;38806;51.554;5.704;2023-09-30T01:28:13;17.40;;;8.00;;
50495;SDS011;38806;51.554;5.704;2023-09-30T01:30:20;24.05;;;9.18;;
50495;SDS011;38806;51.554;5.704;2023-09-30T01:32:24;18.65;;;9.45;;
50495;SDS011;38806;51.554;5.704;2023-09-30T01:34:24;15.60;;;7.30;;
50495;SDS011;38806;51.554;5.704;2023-09-30T01:36:27;14.73;;;7.30;;
50495;SDS011;38806;51.554;5.704;2023-09-30T01:38:28;15.68;;;7.97;;
50495;SDS011;38806;51.554;5.704;2023-09-30T01:40:28;18.70;;;8.95;;
50495;SDS011;38806;51.554;5.704;2023-09-30T01:42:44;14.77;;;7.93;;
50495;SDS011;38806;51.554;5.704;2023-09-30T01:44:54;14.13;;;8.07;;
50495;SDS011;38806;51.554;5.704;2023-09-30T01:46:56;13.18;;;7.03;;
50495;SDS011;38806;51.554;5.704;2023-09-30T01:48:58;14.10;;;7.47;;
50495;SDS011;38806;51.554;5.704;2023-09-30T01:50:58;12.98;;;7.13;;
50495;SDS011;38806;51.554;5.704;2023-09-30T01:53:13;18.05;;;7.57;;
50495;SDS011;38806;51.554;5.704;2023-09-30T01:55:14;14.02;;;8.85;;
50495;SDS011;38806;51.554;5.704;2023-09-30T01:57:14;19.92;;;10.68;;
50495;SDS011;38806;51.554;5.704;2023-09-30T01:59:15;20.05;;;8.38;;
50495;SDS011;38806;51.554;5.704;2023-09-30T02:01:15;18.05;;;8.60;;
50495;SDS011;38806;51.554;5.704;2023-09-30T02:03:15;17.10;;;8.45;;
50495;SDS011;38806;51.554;5.704;2023-09-30T02:05:17;14.95;;;7.90;;
50495;SDS011;38806;51.554;5.704;2023-09-30T02:07:17;18.10;;;8.82;;
50495;SDS011;38806;51.554;5.704;2023-09-30T02:09:17;20.35;;;9.52;;
50495;SDS011;38806;51.554;5.704;2023-09-30T02:11:17;16.30;;;9.43;;
50495;SDS011;38806;51.554;5.704;2023-09-30T02:13:17;14.88;;;8.13;;
50495;SDS011;38806;51.554;5.704;2023-09-30T02:15:18;12.60;;;6.88;;
50495;SDS011;38806;51.554;5.704;2023-09-30T02:17:18;13.90;;;7.63;;
50495;SDS011;38806;51.554;5.704;2023-09-30T02:19:18;12.10;;;6.57;;
50495;SDS011;38806;51.554;5.704;2023-09-30T02:21:19;20.20;;;10.02;;
50495;SDS011;38806;51.554;5.704;2023-09-30T02:23:21;14.20;;;7.90;;
50495;SDS011;38806;51.554;5.704;2023-09-30T02:25:22;15.95;;;7.95;;
50495;SDS011;38806;51.554;5.704;2023-09-30T02:27:23;13.88;;;7.22;;
50495;SDS011;38806;51.554;5.704;2023-09-30T02:29:23;13.27;;;7.20;;
50495;SDS011;38806;51.554;5.704;2023-09-30T02:31:23;12.90;;;7.97;;
50495;SDS011;38806;51.554;5.704;2023-09-30T02:33:24;19.15;;;9.85;;
50495;SDS011;38806;51.554;5.704;2023-09-30T02:35:26;15.80;;;8.70;;
50495;SDS011;38806;51.554;5.704;2023-09-30T02:37:26;22.95;;;10.30;;
50495;SDS011;38806;51.554;5.704;2023-09-30T02:39:26;19.85;;;11.15;;
50495;SDS011;38806;51.554;5.704;2023-09-30T02:41:26;21.77;;;9.80;;
50495;SDS011;38806;51.554;5.704;2023-09-30T02:43:26;13.85;;;8.02;;
50495;SDS011;38806;51.554;5.704;2023-09-30T02:45:27;16.83;;;11.25;;
50495;SDS011;38806;51.554;5.704;2023-09-30T02:47:27;14.98;;;9.38;;
50495;SDS011;38806;51.554;5.704;2023-09-30T02:49:27;18.95;;;9.95;;
50495;SDS011;38806;51.554;5.704;2023-09-30T02:51:27;21.33;;;8.55;;
50495;SDS011;38806;51.554;5.704;2023-09-30T02:53:28;14.05;;;8.48;;
50495;SDS011;38806;51.554;5.704;2023-09-30T02:55:28;15.27;;;8.73;;
50495;SDS011;38806;51.554;5.704;2023-09-30T02:57:28;17.83;;;7.57;;
50495;SDS011;38806;51.554;5.704;2023-09-30T02:59:29;24.23;;;10.30;;
50495;SDS011;38806;51.554;5.704;2023-09-30T03:01:29;16.10;;;10.02;;
50495;SDS011;38806;51.554;5.704;2023-09-30T03:03:30;19.77;;;9.93;;
50495;SDS011;38806;51.554;5.704;2023-09-30T03:05:31;17.38;;;8.70;;
50495;SDS011;38806;51.554;5.704;2023-09-30T03:07:33;17.42;;;9.15;;
50495;SDS011;38806;51.554;5.704;2023-09-30T03:09:33;14.07;;;7.60;;
50495;SDS011;38806;51.554;5.704;2023-09-30T03:11:33;19.90;;;9.75;;
50495;SDS011;38806;51.554;5.704;2023-09-30T03:13:34;23.45;;;11.13;;
50495;SDS011;38806;51.554;5.704;2023-09-30T03:15:37;23.90;;;13.32;;
50495;SDS011;38806;51.554;5.704;2023-09-30T03:17:38;20.42;;;10.60;;
50495;SDS011;38806;51.554;5.704;2023-09-30T03:19:39;19.90;;;9.98;;
50495;SDS011;38806;51.554;5.704;2023-09-30T03:21:40;17.67;;;11.00;;
50495;SDS011;38806;51.554;5.704;2023-09-30T03:23:40;25.55;;;11.77;;
50495;SDS011;38806;51.554;5.704;2023-09-30T03:25:40;19.77;;;10.90;;
50495;SDS011;38806;51.554;5.704;2023-09-30T03:27:42;18.35;;;10.27;;
50495;SDS011;38806;51.554;5.704;2023-09-30T03:29:42;25.30;;;12.55;;
50495;SDS011;38806;51.554;5.704;2023-09-30T03:31:42;15.48;;;8.35;;
50495;SDS011;38806;51.554;5.704;2023-09-30T03:33:42;21.15;;;10.48;;
50495;SDS011;38806;51.554;5.704;2023-09-30T03:35:43;23.80;;;13.18;;
50495;SDS011;38806;51.554;5.704;2023-09-30T03:37:44;29.05;;;14.27;;
50495;SDS011;38806;51.554;5.704;2023-09-30T03:39:45;28.45;;;15.40;;
50495;SDS011;38806;51.554;5.704;2023-09-30T03:41:49;25.17;;;14.65;;
50495;SDS011;38806;51.554;5.704;2023-09-30T03:43:49;29.27;;;14.65;;
50495;SDS011;38806;51.554;5.704;2023-09-30T03:45:49;29.67;;;15.00;;
50495;SDS011;38806;51.554;5.704;2023-09-30T03:47:50;25.52;;;12.27;;
50495;SDS011;38806;51.554;5.704;2023-09-30T03:49:52;30.15;;;15.23;;
50495;SDS011;38806;51.554;5.704;2023-09-30T03:51:54;30.23;;;16.25;;
50495;SDS011;38806;51.554;5.704;2023-09-30T03:53:54;26.98;;;15.85;;
50495;SDS011;38806;51.554;5.704;2023-09-30T03:55:55;21.85;;;11.85;;
50495;SDS011;38806;51.554;5.704;2023-09-30T03:57:55;19.17;;;12.23;;
50495;SDS011;38806;51.554;5.704;2023-09-30T03:59:55;25.65;;;12.38;;
50495;SDS011;38806;51.554;5.704;2023-09-30T04:01:56;18.48;;;11.45;;
50495;SDS011;38806;51.554;5.704;2023-09-30T04:03:58;19.98;;;11.85;;
50495;SDS011;38806;51.554;5.704;2023-09-30T04:05:58;26.25;;;14.38;;
50495;SDS011;38806;51.554;5.704;2023-09-30T04:07:58;28.70;;;14.63;;
50495;SDS011;38806;51.554;5.704;2023-09-30T04:09:58;26.98;;;14.13;;
50495;SDS011;38806;51.554;5.704;2023-09-30T04:12:01;26.42;;;15.10;;
50495;SDS011;38806;51.554;5.704;2023-09-30T04:14:01;25.00;;;13.35;;
50495;SDS011;38806;51.554;5.704;2023-09-30T04:16:01;22.38;;;13.57;;
50495;SDS011;38806;51.554;5.704;2023-09-30T04:18:03;23.23;;;14.13;;
50495;SDS011;38806;51.554;5.704;2023-09-30T04:20:05;23.52;;;12.18;;
50495;SDS011;38806;51.554;5.704;2023-09-30T04:22:08;23.30;;;13.50;;
50495;SDS011;38806;51.554;5.704;2023-09-30T04:24:09;25.42;;;14.38;;
50495;SDS011;38806;51.554;5.704;2023-09-30T04:26:09;29.23;;;16.67;;
50495;SDS011;38806;51.554;5.704;2023-09-30T04:28:10;31.35;;;15.38;;
50495;SDS011;38806;51.554;5.704;2023-09-30T04:30:10;25.50;;;13.40;;
50495;SDS011;38806;51.554;5.704;2023-09-30T04:32:11;26.30;;;15.35;;
50495;SDS011;38806;51.554;5.704;2023-09-30T04:34:11;22.65;;;13.63;;
50495;SDS011;38806;51.554;5.704;2023-09-30T04:36:11;24.75;;;14.50;;
50495;SDS011;38806;51.554;5.704;2023-09-30T04:38:12;30.48;;;14.27;;
50495;SDS011;38806;51.554;5.704;2023-09-30T04:40:13;24.55;;;12.88;;
50495;SDS011;38806;51.554;5.704;2023-09-30T04:42:19;28.20;;;14.25;;
50495;SDS011;38806;51.554;5.704;2023-09-30T04:44:19;22.48;;;14.18;;
50495;SDS011;38806;51.554;5.704;2023-09-30T04:46:20;22.58;;;12.85;;
50495;SDS011;38806;51.554;5.704;2023-09-30T04:48:23;21.05;;;10.95;;
50495;SDS011;38806;51.554;5.704;2023-09-30T04:50:23;29.00;;;13.68;;
50495;SDS011;38806;51.554;5.704;2023-09-30T04:52:24;31.33;;;14.25;;
50495;SDS011;38806;51.554;5.704;2023-09-30T04:54:27;30.38;;;14.80;;
50495;SDS011;38806;51.554;5.704;2023-09-30T04:56:29;26.20;;;14.65;;
50495;SDS011;38806;51.554;5.704;2023-09-30T04:58:29;23.23;;;12.93;;
50495;SDS011;38806;51.554;5.704;2023-09-30T05:00:29;26.73;;;13.55;;
50495;SDS011;38806;51.554;5.704;2023-09-30T05:02:30;22.17;;;12.82;;
50495;SDS011;38806;51.554;5.704;2023-09-30T05:04:30;22.17;;;12.98;;
50495;SDS011;38806;51.554;5.704;2023-09-30T05:06:31;21.60;;;12.80;;
50495;SDS011;38806;51.554;5.704;2023-09-30T05:08:32;28.10;;;14.80;;
50495;SDS011;38806;51.554;5.704;2023-09-30T05:10:32;19.63;;;13.05;;
50495;SDS011;38806;51.554;5.704;2023-09-30T05:12:33;22.88;;;12.05;;
50495;SDS011;38806;51.554;5.704;2023-09-30T05:14:34;17.98;;;11.02;;
50495;SDS011;38806;51.554;5.704;2023-09-30T05:16:35;22.00;;;13.82;;
50495;SDS011;38806;51.554;5.704;2023-09-30T05:18:35;19.92;;;11.48;;
50495;SDS011;38806;51.554;5.704;2023-09-30T05:20:35;25.20;;;13.43;;
50495;SDS011;38806;51.554;5.704;2023-09-30T05:22:36;25.40;;;14.82;;
50495;SDS011;38806;51.554;5.704;2023-09-30T05:24:36;21.67;;;13.35;;
50495;SDS011;38806;51.554;5.704;2023-09-30T05:26:37;23.77;;;13.15;;
50495;SDS011;38806;51.554;5.704;2023-09-30T05:28:37;18.92;;;12.20;;
50495;SDS011;38806;51.554;5.704;2023-09-30T05:30:39;28.95;;;13.85;;
50495;SDS011;38806;51.554;5.704;2023-09-30T05:32:40;21.27;;;13.02;;
50495;SDS011;38806;51.554;5.704;2023-09-30T05:34:40;19.77;;;12.18;;
50495;SDS011;38806;51.554;5.704;2023-09-30T05:36:41;22.95;;;12.85;;
50495;SDS011;38806;51.554;5.704;2023-09-30T05:38:42;25.55;;;13.23;;
50495;SDS011;38806;51.554;5.704;2023-09-30T05:40:42;29.52;;;14.73;;
50495;SDS011;38806;51.554;5.704;2023-09-30T05:42:44;23.50;;;12.57;;
50495;SDS011;38806;51.554;5.704;2023-09-30T05:44:44;22.38;;;10.35;;
50495;SDS011;38806;51.554;5.704;2023-09-30T05:46:44;18.27;;;11.60;;
50495;SDS011;38806;51.554;5.704;2023-09-30T05:48:45;20.23;;;11.32;;
50495;SDS011;38806;51.554;5.704;2023-09-30T05:50:45;17.88;;;11.00;;
50495;SDS011;38806;51.554;5.704;2023-09-30T05:52:46;22.05;;;14.98;;
50495;SDS011;38806;51.554;5.704;2023-09-30T05:54:46;21.75;;;11.65;;
50495;SDS011;38806;51.554;5.704;2023-09-30T05:56:46;21.50;;;12.68;;
50495;SDS011;38806;51.554;5.704;2023-09-30T05:58:47;26.05;;;13.65;;
50495;SDS011;38806;51.554;5.704;2023-09-30T06:00:47;26.30;;;12.48;;
50495;SDS011;38806;51.554;5.704;2023-09-30T06:02:48;27.05;;;14.00;;
50495;SDS011;38806;51.554;5.704;2023-09-30T06:04:48;27.50;;;14.32;;
50495;SDS011;38806;51.554;5.704;2023-09-30T06:06:50;25.38;;;14.77;;
50495;SDS011;38806;51.554;5.704;2023-09-30T06:08:51;29.58;;;15.70;;
50495;SDS011;38806;51.554;5.704;2023-09-30T06:10:51;23.73;;;14.23;;
50495;SDS011;38806;51.554;5.704;2023-09-30T06:12:52;24.52;;;14.95;;
50495;SDS011;38806;51.554;5.704;2023-09-30T06:14:56;29.30;;;16.38;;
50495;SDS011;38806;51.554;5.704;2023-09-30T06:16:56;29.92;;;15.63;;
50495;SDS011;38806;51.554;5.704;2023-09-30T06:18:56;35.78;;;18.55;;
50495;SDS011;38806;51.554;5.704;2023-09-30T06:20:56;38.83;;;18.80;;
50495;SDS011;38806;51.554;5.704;2023-09-30T06:22:57;34.08;;;18.33;;
50495;SDS011;38806;51.554;5.704;2023-09-30T06:24:58;41.25;;;18.55;;
50495;SDS011;38806;51.554;5.704;2023-09-30T06:26:58;41.20;;;20.77;;
50495;SDS011;38806;51.554;5.704;2023-09-30T06:28:58;32.60;;;19.38;;
50495;SDS011;38806;51.554;5.704;2023-09-30T06:30:58;39.22;;;19.70;;
50495;SDS011;38806;51.554;5.704;2023-09-30T06:32:59;35.88;;;19.90;;
50495;SDS011;38806;51.554;5.704;2023-09-30T06:35:00;39.80;;;22.92;;
50495;SDS011;38806;51.554;5.704;2023-09-30T06:37:00;39.05;;;21.75;;
50495;SDS011;38806;51.554;5.704;2023-09-30T06:39:00;39.00;;;23.65;;
50495;SDS011;38806;51.554;5.704;2023-09-30T06:41:03;44.47;;;22.85;;
50495;SDS011;38806;51.554;5.704;2023-09-30T06:43:03;44.72;;;23.20;;
50495;SDS011;38806;51.554;5.704;2023-09-30T06:45:03;43.67;;;23.98;;
50495;SDS011;38806;51.554;5.704;2023-09-30T06:47:05;39.13;;;20.75;;
50495;SDS011;38806;51.554;5.704;2023-09-30T06:49:05;41.13;;;20.50;;
50495;SDS011;38806;51.554;5.704;2023-09-30T06:51:06;39.95;;;20.85;;
50495;SDS011;38806;51.554;5.704;2023-09-30T06:53:06;42.25;;;25.70;;
50495;SDS011;38806;51.554;5.704;2023-09-30T06:55:07;42.80;;;25.02;;
50495;SDS011;38806;51.554;5.704;2023-09-30T06:57:07;38.83;;;22.27;;
50495;SDS011;38806;51.554;5.704;2023-09-30T06:59:08;47.35;;;24.65;;
50495;SDS011;38806;51.554;5.704;2023-09-30T07:01:08;42.58;;;21.80;;
50495;SDS011;38806;51.554;5.704;2023-09-30T07:03:09;52.13;;;24.38;;
50495;SDS011;38806;51.554;5.704;2023-09-30T07:07:09;39.88;;;22.88;;
50495;SDS011;38806;51.554;5.704;2023-09-30T07:09:09;41.78;;;20.73;;
50495;SDS011;38806;51.554;5.704;2023-09-30T07:11:12;40.42;;;21.08;;
50495;SDS011;38806;51.554;5.704;2023-09-30T07:13:12;41.45;;;20.20;;
50495;SDS011;38806;51.554;5.704;2023-09-30T07:15:12;45.97;;;19.73;;
50495;SDS011;38806;51.554;5.704;2023-09-30T07:17:13;32.17;;;18.75;;
50495;SDS011;38806;51.554;5.704;2023-09-30T07:19:14;33.70;;;19.30;;
50495;SDS011;38806;51.554;5.704;2023-09-30T07:21:14;36.20;;;18.25;;
50495;SDS011;38806;51.554;5.704;2023-09-30T07:23:15;32.90;;;17.58;;
50495;SDS011;38806;51.554;5.704;2023-09-30T07:25:15;31.00;;;18.40;;
50495;SDS011;38806;51.554;5.704;2023-09-30T07:27:16;29.48;;;16.05;;
50495;SDS011;38806;51.554;5.704;2023-09-30T07:29:16;30.95;;;17.73;;
50495;SDS011;38806;51.554;5.704;2023-09-30T07:31:17;29.33;;;14.52;;
50495;SDS011;38806;51.554;5.704;2023-09-30T07:33:17;30.23;;;17.85;;
50495;SDS011;38806;51.554;5.704;2023-09-30T07:35:17;27.25;;;15.10;;
50495;SDS011;38806;51.554;5.704;2023-09-30T07:37:17;35.63;;;16.92;;
50495;SDS011;38806;51.554;5.704;2023-09-30T07:39:18;28.35;;;13.35;;
50495;SDS011;38806;51.554;5.704;2023-09-30T07:41:19;28.75;;;15.15;;
50495;SDS011;38806;51.554;5.704;2023-09-30T07:43:19;31.55;;;15.57;;
50495;SDS011;38806;51.554;5.704;2023-09-30T07:45:20;28.95;;;15.18;;
50495;SDS011;38806;51.554;5.704;2023-09-30T07:47:21;35.17;;;15.50;;
50495;SDS011;38806;51.554;5.704;2023-09-30T07:49:21;25.35;;;14.02;;
50495;SDS011;38806;51.554;5.704;2023-09-30T07:51:21;24.23;;;14.30;;
50495;SDS011;38806;51.554;5.704;2023-09-30T07:53:21;27.87;;;13.77;;
50495;SDS011;38806;51.554;5.704;2023-09-30T07:55:22;24.75;;;15.07;;
50495;SDS011;38806;51.554;5.704;2023-09-30T07:57:22;26.08;;;13.60;;
50495;SDS011;38806;51.554;5.704;2023-09-30T07:59:22;24.57;;;14.57;;
50495;SDS011;38806;51.554;5.704;2023-09-30T08:01:23;28.52;;;12.90;;
50495;SDS011;38806;51.554;5.704;2023-09-30T08:03:23;28.73;;;13.00;;
50495;SDS011;38806;51.554;5.704;2023-09-30T08:05:23;27.37;;;14.37;;
50495;SDS011;38806;51.554;5.704;2023-09-30T08:07:23;31.20;;;15.68;;
50495;SDS011;38806;51.554;5.704;2023-09-30T08:09:23;27.33;;;14.02;;
50495;SDS011;38806;51.554;5.704;2023-09-30T08:11:24;31.70;;;14.20;;
50495;SDS011;38806;51.554;5.704;2023-09-30T08:13:27;27.08;;;13.77;;
50495;SDS011;38806;51.554;5.704;2023-09-30T08:15:29;33.45;;;13.60;;
50495;SDS011;38806;51.554;5.704;2023-09-30T08:17:31;23.02;;;12.10;;
50495;SDS011;38806;51.554;5.704;2023-09-30T08:19:32;26.48;;;14.55;;
50495;SDS011;38806;51.554;5.704;2023-09-30T08:21:32;26.60;;;11.85;;
50495;SDS011;38806;51.554;5.704;2023-09-30T08:23:32;21.67;;;9.85;;
50495;SDS011;38806;51.554;5.704;2023-09-30T08:25:32;16.15;;;9.65;;
50495;SDS011;38806;51.554;5.704;2023-09-30T08:27:33;16.33;;;8.37;;
50495;SDS011;38806;51.554;5.704;2023-09-30T08:29:33;18.63;;;9.30;;
50495;SDS011;38806;51.554;5.704;2023-09-30T08:31:35;22.08;;;7.68;;
50495;SDS011;38806;51.554;5.704;2023-09-30T08:33:36;20.15;;;8.40;;
50495;SDS011;38806;51.554;5.704;2023-09-30T08:35:36;15.13;;;7.00;;
50495;SDS011;38806;51.554;5.704;2023-09-30T08:37:38;16.90;;;7.82;;
50495;SDS011;38806;51.554;5.704;2023-09-30T08:39:38;19.45;;;6.45;;
50495;SDS011;38806;51.554;5.704;2023-09-30T08:41:40;13.80;;;6.70;;
50495;SDS011;38806;51.554;5.704;2023-09-30T08:43:40;12.13;;;6.20;;
50495;SDS011;38806;51.554;5.704;2023-09-30T08:45:40;17.17;;;7.82;;
50495;SDS011;38806;51.554;5.704;2023-09-30T08:47:44;17.88;;;6.50;;
50495;SDS011;38806;51.554;5.704;2023-09-30T08:49:44;20.13;;;7.53;;
50495;SDS011;38806;51.554;5.704;2023-09-30T08:51:45;19.48;;;7.13;;
50495;SDS011;38806;51.554;5.704;2023-09-30T08:53:49;14.35;;;6.82;;
50495;SDS011;38806;51.554;5.704;2023-09-30T08:55:53;12.23;;;5.65;;
50495;SDS011;38806;51.554;5.704;2023-09-30T08:57:54;11.73;;;5.90;;
50495;SDS011;38806;51.554;5.704;2023-09-30T08:59:55;15.20;;;6.80;;
50495;SDS011;38806;51.554;5.704;2023-09-30T09:01:56;19.38;;;7.97;;
50495;SDS011;38806;51.554;5.704;2023-09-30T09:03:56;14.25;;;7.80;;
50495;SDS011;38806;51.554;5.704;2023-09-30T09:05:56;13.80;;;6.28;;
50495;SDS011;38806;51.554;5.704;2023-09-30T09:07:57;20.88;;;7.40;;
50495;SDS011;38806;51.554;5.704;2023-09-30T09:10:02;17.33;;;7.20;;
50495;SDS011;38806;51.554;5.704;2023-09-30T09:12:03;17.02;;;7.35;;
50495;SDS011;38806;51.554;5.704;2023-09-30T09:14:03;15.10;;;7.35;;
50495;SDS011;38806;51.554;5.704;2023-09-30T09:16:07;17.45;;;8.70;;
50495;SDS011;38806;51.554;5.704;2023-09-30T09:18:08;11.88;;;6.95;;
50495;SDS011;38806;51.554;5.704;2023-09-30T09:20:09;14.10;;;7.45;;
50495;SDS011;38806;51.554;5.704;2023-09-30T09:22:10;14.10;;;7.85;;
50495;SDS011;38806;51.554;5.704;2023-09-30T09:24:11;14.00;;;6.97;;
50495;SDS011;38806;51.554;5.704;2023-09-30T09:26:29;19.42;;;9.48;;
50495;SDS011;38806;51.554;5.704;2023-09-30T09:28:35;15.60;;;7.22;;
50495;SDS011;38806;51.554;5.704;2023-09-30T09:30:42;25.50;;;9.23;;
50495;SDS011;38806;51.554;5.704;2023-09-30T09:32:53;14.93;;;7.78;;
50495;SDS011;38806;51.554;5.704;2023-09-30T09:35:00;13.25;;;7.28;;
50495;SDS011;38806;51.554;5.704;2023-09-30T09:37:03;11.27;;;6.30;;
50495;SDS011;38806;51.554;5.704;2023-09-30T09:39:12;12.80;;;7.25;;
50495;SDS011;38806;51.554;5.704;2023-09-30T09:41:16;13.88;;;7.50;;
50495;SDS011;38806;51.554;5.704;2023-09-30T09:43:17;16.45;;;7.55;;
50495;SDS011;38806;51.554;5.704;2023-09-30T09:45:17;13.50;;;6.70;;
50495;SDS011;38806;51.554;5.704;2023-09-30T09:47:18;11.50;;;6.30;;
50495;SDS011;38806;51.554;5.704;2023-09-30T09:49:20;16.73;;;7.15;;
50495;SDS011;38806;51.554;5.704;2023-09-30T09:51:20;14.93;;;7.35;;
50495;SDS011;38806;51.554;5.704;2023-09-30T09:53:21;10.25;;;4.95;;
50495;SDS011;38806;51.554;5.704;2023-09-30T09:55:22;12.45;;;5.80;;
50495;SDS011;38806;51.554;5.704;2023-09-30T09:57:23;14.73;;;6.03;;
50495;SDS011;38806;51.554;5.704;2023-09-30T09:59:25;11.88;;;5.70;;
50495;SDS011;38806;51.554;5.704;2023-09-30T10:01:26;9.70;;;5.78;;
50495;SDS011;38806;51.554;5.704;2023-09-30T10:03:27;11.40;;;5.63;;
50495;SDS011;38806;51.554;5.704;2023-09-30T10:05:28;12.00;;;5.43;;
50495;SDS011;38806;51.554;5.704;2023-09-30T10:07:30;9.77;;;5.20;;
50495;SDS011;38806;51.554;5.704;2023-09-30T10:09:33;12.70;;;5.80;;
50495;SDS011;38806;51.554;5.704;2023-09-30T10:11:35;8.75;;;5.18;;
50495;SDS011;38806;51.554;5.704;2023-09-30T10:13:54;8.25;;;3.90;;
50495;SDS011;38806;51.554;5.704;2023-09-30T10:16:02;14.43;;;5.70;;
50495;SDS011;38806;51.554;5.704;2023-09-30T10:20:06;8.27;;;3.92;;
50495;SDS011;38806;51.554;5.704;2023-09-30T10:26:23;8.57;;;3.25;;
50495;SDS011;38806;51.554;5.704;2023-09-30T10:30:36;10.15;;;4.97;;
50495;SDS011;38806;51.554;5.704;2023-09-30T10:35:01;11.68;;;4.57;;
50495;SDS011;38806;51.554;5.704;2023-09-30T10:39:52;7.70;;;2.80;;
50495;SDS011;38806;51.554;5.704;2023-09-30T10:43:41;7.83;;;3.97;;
50495;SDS011;38806;51.554;5.704;2023-09-30T10:47:43;9.73;;;5.20;;
50495;SDS011;38806;51.554;5.704;2023-09-30T10:49:43;8.35;;;3.63;;
50495;SDS011;38806;51.554;5.704;2023-09-30T10:51:43;8.10;;;4.80;;
50495;SDS011;38806;51.554;5.704;2023-09-30T10:53:45;9.68;;;3.63;;
50495;SDS011;38806;51.554;5.704;2023-09-30T10:55:46;10.35;;;3.90;;
50495;SDS011;38806;51.554;5.704;2023-09-30T10:57:50;14.27;;;4.03;;
50495;SDS011;38806;51.554;5.704;2023-09-30T10:59:52;9.93;;;3.30;;
50495;SDS011;38806;51.554;5.704;2023-09-30T11:02:18;8.32;;;3.35;;
50495;SDS011;38806;51.554;5.704;2023-09-30T11:04:19;8.43;;;3.35;;
50495;SDS011;38806;51.554;5.704;2023-09-30T11:06:20;6.68;;;3.63;;
50495;SDS011;38806;51.554;5.704;2023-09-30T11:08:21;7.30;;;3.17;;
50495;SDS011;38806;51.554;5.704;2023-09-30T11:10:23;9.73;;;4.35;;
50495;SDS011;38806;51.554;5.704;2023-09-30T11:12:23;6.88;;;3.10;;
50495;SDS011;38806;51.554;5.704;2023-09-30T11:14:25;6.72;;;2.42;;
50495;SDS011;38806;51.554;5.704;2023-09-30T11:16:25;11.38;;;3.90;;
50495;SDS011;38806;51.554;5.704;2023-09-30T11:18:25;7.63;;;3.10;;
50495;SDS011;38806;51.554;5.704;2023-09-30T11:20:25;8.63;;;3.10;;
50495;SDS011;38806;51.554;5.704;2023-09-30T11:22:26;8.73;;;2.83;;
50495;SDS011;38806;51.554;5.704;2023-09-30T11:24:27;6.57;;;3.30;;
50495;SDS011;38806;51.554;5.704;2023-09-30T11:26:29;8.32;;;4.43;;
50495;SDS011;38806;51.554;5.704;2023-09-30T11:28:40;6.93;;;2.47;;
50495;SDS011;38806;51.554;5.704;2023-09-30T11:30:56;9.38;;;2.70;;
50495;SDS011;38806;51.554;5.704;2023-09-30T11:33:00;9.90;;;3.97;;
50495;SDS011;38806;51.554;5.704;2023-09-30T11:35:00;8.70;;;4.40;;
50495;SDS011;38806;51.554;5.704;2023-09-30T11:37:01;8.05;;;4.13;;
50495;SDS011;38806;51.554;5.704;2023-09-30T11:39:02;8.30;;;3.20;;
50495;SDS011;38806;51.554;5.704;2023-09-30T11:41:04;7.75;;;2.70;;
50495;SDS011;38806;51.554;5.704;2023-09-30T11:43:06;8.60;;;4.00;;
50495;SDS011;38806;51.554;5.704;2023-09-30T11:45:20;8.98;;;3.70;;
50495;SDS011;38806;51.554;5.704;2023-09-30T11:47:30;10.90;;;2.95;;
50495;SDS011;38806;51.554;5.704;2023-09-30T11:49:37;7.35;;;3.58;;
50495;SDS011;38806;51.554;5.704;2023-09-30T11:51:43;10.95;;;3.75;;
50495;SDS011;38806;51.554;5.704;2023-09-30T11:53:47;9.85;;;4.05;;
50495;SDS011;38806;51.554;5.704;2023-09-30T11:55:49;8.10;;;3.33;;
50495;SDS011;38806;51.554;5.704;2023-09-30T11:57:49;8.30;;;2.93;;
50495;SDS011;38806;51.554;5.704;2023-09-30T11:59:50;10.63;;;3.40;;
50495;SDS011;38806;51.554;5.704;2023-09-30T12:01:52;7.38;;;2.60;;
50495;SDS011;38806;51.554;5.704;2023-09-30T12:03:53;11.40;;;2.40;;
50495;SDS011;38806;51.554;5.704;2023-09-30T12:05:55;10.63;;;2.72;;
50495;SDS011;38806;51.554;5.704;2023-09-30T12:07:56;8.35;;;4.78;;
50495;SDS011;38806;51.554;5.704;2023-09-30T12:09:56;8.80;;;3.50;;
50495;SDS011;38806;51.554;5.704;2023-09-30T12:11:56;6.90;;;2.83;;
50495;SDS011;38806;51.554;5.704;2023-09-30T12:13:57;9.88;;;2.60;;
50495;SDS011;38806;51.554;5.704;2023-09-30T12:15:57;7.03;;;3.13;;
50495;SDS011;38806;51.554;5.704;2023-09-30T12:17:58;6.77;;;2.93;;
50495;SDS011;38806;51.554;5.704;2023-09-30T12:19:58;10.68;;;2.83;;
50495;SDS011;38806;51.554;5.704;2023-09-30T12:21:59;5.93;;;2.45;;
50495;SDS011;38806;51.554;5.704;2023-09-30T12:24:00;7.67;;;2.70;;
50495;SDS011;38806;51.554;5.704;2023-09-30T12:26:00;9.77;;;3.20;;
50495;SDS011;38806;51.554;5.704;2023-09-30T12:28:05;6.60;;;2.70;;
50495;SDS011;38806;51.554;5.704;2023-09-30T12:30:05;9.18;;;3.00;;
50495;SDS011;38806;51.554;5.704;2023-09-30T12:32:06;8.43;;;3.15;;
50495;SDS011;38806;51.554;5.704;2023-09-30T12:34:07;7.90;;;3.33;;
50495;SDS011;38806;51.554;5.704;2023-09-30T12:36:07;7.20;;;2.67;;
50495;SDS011;38806;51.554;5.704;2023-09-30T12:38:07;6.07;;;2.55;;
50495;SDS011;38806;51.554;5.704;2023-09-30T12:40:07;6.50;;;3.30;;
50495;SDS011;38806;51.554;5.704;2023-09-30T12:42:08;8.70;;;3.35;;
50495;SDS011;38806;51.554;5.704;2023-09-30T12:44:10;7.82;;;2.50;;
50495;SDS011;38806;51.554;5.704;2023-09-30T12:46:10;6.57;;;2.42;;
50495;SDS011;38806;51.554;5.704;2023-09-30T12:48:13;6.95;;;3.25;;
50495;SDS011;38806;51.554;5.704;2023-09-30T12:50:14;7.35;;;3.13;;
50495;SDS011;38806;51.554;5.704;2023-09-30T12:52:14;11.20;;;3.40;;
50495;SDS011;38806;51.554;5.704;2023-09-30T12:54:14;5.37;;;1.97;;
50495;SDS011;38806;51.554;5.704;2023-09-30T12:56:18;7.80;;;2.70;;
50495;SDS011;38806;51.554;5.704;2023-09-30T12:58:19;7.70;;;2.58;;
50495;SDS011;38806;51.554;5.704;2023-09-30T13:00:19;5.17;;;2.17;;
50495;SDS011;38806;51.554;5.704;2023-09-30T13:02:22;10.88;;;3.35;;
50495;SDS011;38806;51.554;5.704;2023-09-30T13:04:22;7.00;;;3.33;;
50495;SDS011;38806;51.554;5.704;2023-09-30T13:06:23;7.68;;;3.85;;
50495;SDS011;38806;51.554;5.704;2023-09-30T13:08:24;6.38;;;2.95;;
50495;SDS011;38806;51.554;5.704;2023-09-30T13:10:24;8.37;;;3.43;;
50495;SDS011;38806;51.554;5.704;2023-09-30T13:12:25;10.52;;;3.60;;
50495;SDS011;38806;51.554;5.704;2023-09-30T13:14:25;8.25;;;3.50;;